Low temp

Not for real navigation. The accuracy of this data is not assured See disclaimer for more information



ICAO NAME COUNTRY WIND Kt GUST Kt VIS m TEMP/DEW C BARO METAR
NZCM Williams Field Antarctica 0 0 9999 -16/-19 29.57 NZCM 181155Z 00000KT 9000 BR CAVOK M16/M19 A2957 RMK SLP014
FDPP 7 0 9999 -16/-16 30.47 FDPP 181200Z AUTO 36007KT //// // ////// M16/M16 Q1032
SCRM 24 0 9999 -4/-5 28.94 SCRM 181200Z 26024KT 9999 BCFG FEW008 BKN018 M04/M05 Q0980
CXTN Tuktut Nogait , N. W. T. Canada 19 24 9999 -2/-2 29.92 CXTN 181200Z AUTO 31019G24KT M02/M02 RMK AO1 PK WND 31026/1108 SLP095 T10171024 51017
SLOR Oruro Bolivia 0 0 9999 -2/-9 30.62 SLOR 181200Z 00000KT 9999 NSC M02/M09 Q1037

Show more